Time;durP1;ratioP1;P1;durP2;ratioP2;P2;SDS_P1;SDS_P2;PMS_P1;PMS_P2;Temp;Humidity;BMP_temperature;BMP_pressure;BME280_temperature;BME280_humidity;BME280_pressure;Samples;Min_cycle;Max_cycle;Signal;HPM_P1;HPM_P2
2022/06/06 00:01:17;;;;;;;37.83;16.70;;;;;;;18.66;62.78;101296.97;4971736;28;123830;-60
2022/06/06 00:03:45;;;;;;;40.85;17.73;;;;;;;18.64;62.47;101293.56;4972636;28;123866;-60
2022/06/06 00:06:17;;;;;;;37.13;16.83;;;;;;;18.65;62.65;101295.28;4971361;28;114290;-60
2022/06/06 00:08:45;;;;;;;36.45;16.35;;;;;;;18.66;62.67;101296.97;4968006;28;114180;-60
2022/06/06 00:11:12;;;;;;;43.15;17.40;;;;;;;18.65;62.74;101295.28;4969900;28;124092;-60
2022/06/06 00:13:43;;;;;;;43.85;16.17;;;;;;;18.64;62.56;101285.50;4969665;28;124524;-60
2022/06/06 00:16:12;;;;;;;37.47;15.98;;;;;;;18.65;62.54;101289.91;4970758;28;114072;-60
2022/06/06 00:18:43;;;;;;;39.03;16.88;;;;;;;18.65;62.67;101273.81;4970361;28;113841;-60
2022/06/06 00:21:12;;;;;;;41.35;16.42;;;;;;;18.66;62.79;101271.00;4967754;28;124997;-60
2022/06/06 00:23:39;;;;;;;35.85;15.90;;;;;;;18.66;62.53;101280.88;4972043;28;124630;-60
2022/06/06 00:26:10;;;;;;;40.13;16.10;;;;;;;18.66;62.63;101280.88;4970520;28;114599;-60
2022/06/06 00:28:40;;;;;;;38.45;15.85;;;;;;;18.67;62.49;101282.63;4967587;28;115755;-60
2022/06/06 00:36:40;;;;;;;36.58;15.43;;;;;;;18.68;62.61;101284.31;4970209;28;114213;-60
2022/06/06 00:39:10;;;;;;;32.08;14.75;;;;;;;18.69;62.74;101280.66;4966707;28;114290;-61
2022/06/06 00:41:38;;;;;;;35.45;15.38;;;;;;;18.70;62.57;101277.00;4965472;28;124374;-60
2022/06/06 00:44:14;;;;;;;34.88;14.63;;;;;;;18.68;62.54;101268.22;4969776;28;124286;-60
2022/06/06 00:46:50;;;;;;;36.80;15.43;;;;;;;18.68;62.72;101273.56;4968761;28;114357;-60
2022/06/06 00:49:24;;;;;;;32.72;14.75;;;;;;;18.68;62.65;101269.09;4959851;28;114006;-60
2022/06/06 00:51:53;;;;;;;33.25;14.70;;;;;;;18.71;62.59;101276.03;4968190;28;123989;-61
2022/06/06 00:54:22;;;;;;;31.45;14.02;;;;;;;18.71;62.53;101278.72;4968019;28;123884;-60
2022/06/06 00:56:57;;;;;;;34.38;14.10;;;;;;;18.71;62.59;101277.88;4971248;28;114275;-60
2022/06/06 00:59:29;;;;;;;29.03;13.67;;;;;;;18.70;62.53;101279.69;4967696;28;113895;-60
2022/06/06 01:01:57;;;;;;;30.65;13.80;;;;;;;18.70;62.55;101281.53;4968778;28;124040;-60
2022/06/06 01:04:27;;;;;;;28.15;13.40;;;;;;;18.68;62.49;101278.94;4968832;28;124358;-61
2022/06/06 01:06:54;;;;;;;30.10;14.10;;;;;;;18.70;62.67;101282.38;4966731;28;113999;-60
2022/06/06 01:09:24;;;;;;;29.02;13.95;;;;;;;18.69;62.49;101275.31;4968386;28;114485;-61
2022/06/06 01:11:59;;;;;;;31.25;14.23;;;;;;;18.69;62.67;101275.31;4971585;28;124692;-61
2022/06/06 01:14:29;;;;;;;;;;;;;;;18.66;62.50;101275.50;4969467;28;123582;-61
2022/06/06 01:17:07;;;;;;;29.65;14.02;;;;;;;18.67;62.43;101277.25;4969664;28;116165;-61
2022/06/06 01:19:47;;;;;;;31.40;14.75;;;;;;;18.65;62.64;101284.56;4966976;28;114890;-61
2022/06/06 01:22:39;;;;;;;33.65;15.27;;;;;;;18.63;62.62;101281.13;4970279;28;124313;-61
2022/06/06 01:25:58;;;;;;;32.58;14.52;;;;;;;18.59;62.64;101279.59;4969232;28;123308;-61
2022/06/06 01:28:44;;;;;;;34.83;15.35;;;;;;;18.56;62.63;101269.97;4968405;28;114673;-61
2022/06/06 01:31:28;;;;;;;31.42;14.60;;;;;;;18.56;62.78;101282.53;4967446;28;114746;-61
2022/06/06 01:34:03;;;;;;;33.72;14.23;;;;;;;18.56;62.96;101279.84;4970491;28;123171;-61
2022/06/06 01:36:33;;;;;;;29.80;14.25;;;;;;;18.56;62.86;101279.84;4970749;28;124242;-61
2022/06/06 01:39:05;;;;;;;33.45;14.70;;;;;;;18.56;62.93;101286.06;4966688;28;113937;-61
2022/06/06 01:41:58;;;;;;;32.10;15.23;;;;;;;18.56;63.12;101274.47;4967436;28;114467;-61
2022/06/06 01:44:57;;;;;;;33.20;15.45;;;;;;;18.55;63.24;101283.47;4966883;28;124107;-61
2022/06/06 01:47:30;;;;;;;34.88;15.63;;;;;;;18.56;63.26;101285.22;4952323;28;124506;-61
2022/06/06 01:49:58;;;;;;;36.47;15.45;;;;;;;18.56;63.16;101274.47;4967813;28;114302;-61
2022/06/06 01:52:26;;;;;;;34.15;15.68;;;;;;;18.56;63.23;101263.75;4966666;28;114879;-61
2022/06/06 01:54:55;;;;;;;34.90;16.10;;;;;;;18.56;63.48;101269.97;4970404;28;125356;-61
2022/06/06 01:57:25;;;;;;;35.92;16.65;;;;;;;18.58;63.47;101273.38;4970529;28;124423;-61
2022/06/06 01:59:52;;;;;;;38.45;16.70;;;;;;;18.59;63.41;101268.88;4969992;28;114448;-61
2022/06/06 02:02:19;;;;;;;37.85;16.58;;;;;;;18.61;63.46;101269.63;4968163;28;114648;-61
2022/06/06 02:04:47;;;;;;;40.85;16.65;;;;;;;18.64;63.50;101261.34;4966533;28;124089;-61
2022/06/06 02:07:14;;;;;;;39.45;17.23;;;;;;;18.64;63.62;101264.03;4967347;28;124718;-61
2022/06/06 02:09:42;;;;;;;39.58;16.60;;;;;;;18.65;63.55;101263.09;4969355;28;116032;-60
2022/06/06 02:12:09;;;;;;;41.55;17.17;;;;;;;18.67;63.51;101261.16;4968350;28;115477;-61
2022/06/06 02:14:38;;;;;;;43.72;17.65;;;;;;;18.67;63.59;101250.41;4969313;28;123424;-61
2022/06/06 02:17:06;;;;;;;40.00;17.92;;;;;;;18.67;63.58;101255.78;4966954;28;124413;-61
2022/06/06 02:19:34;;;;;;;45.70;17.95;;;;;;;18.67;63.63;101251.25;4969257;28;114615;-60
2022/06/06 02:22:01;;;;;;;43.30;18.77;;;;;;;18.68;63.61;101253.00;4966385;28;114237;-61
2022/06/06 02:24:29;;;;;;;41.28;18.77;;;;;;;18.70;63.59;101252.84;4967666;28;124045;-61
2022/06/06 02:26:56;;;;;;;44.58;19.30;;;;;;;18.71;63.59;101241.16;4965401;28;124668;-61
2022/06/06 02:29:24;;;;;;;46.13;19.40;;;;;;;18.72;63.39;101248.22;4969191;28;114514;-61
2022/06/06 02:31:51;;;;;;;44.88;20.52;;;;;;;18.71;63.70;101241.16;4968355;28;114071;-60
2022/06/06 02:34:18;;;;;;;44.45;19.83;;;;;;;18.71;63.63;101241.16;4964582;28;124166;-60
2022/06/06 02:36:45;;;;;;;47.08;19.95;;;;;;;18.73;63.75;101239.22;4967956;28;123922;-60
2022/06/06 02:39:13;;;;;;;48.80;20.58;;;;;;;18.74;63.63;101229.34;4966446;28;114909;-61
2022/06/06 02:41:41;;;;;;;46.00;20.48;;;;;;;18.75;63.64;101234.59;4966969;28;114200;-60
2022/06/06 02:44:10;;;;;;;45.92;19.75;;;;;;;18.75;63.62;101226.56;4967715;28;124236;-61
2022/06/06 02:46:37;;;;;;;46.60;20.13;;;;;;;18.75;63.66;101218.50;4967753;28;124126;-61
2022/06/06 02:49:04;;;;;;;42.97;19.27;;;;;;;18.76;63.54;101219.34;4968467;28;114926;-60
2022/06/06 02:51:32;;;;;;;44.15;19.10;;;;;;;18.76;63.63;101217.53;4967864;28;114932;-60
2022/06/06 02:54:01;;;;;;;39.08;18.63;;;;;;;18.74;63.70;101223.97;4967726;28;124150;-60
2022/06/06 02:56:28;;;;;;;39.25;18.30;;;;;;;18.74;63.66;101224.84;4967694;28;124088;-61
2022/06/06 02:59:00;;;;;;;38.95;19.20;;;;;;;18.73;63.68;101223.13;4965592;28;115024;-60
2022/06/06 03:01:28;;;;;;;37.50;17.08;;;;;;;18.73;63.64;101225.81;4969491;28;114767;-61
2022/06/06 03:03:55;;;;;;;38.22;18.05;;;;;;;18.72;63.82;101225.91;4967383;28;123589;-61
2022/06/06 03:06:31;;;;;;;40.17;17.15;;;;;;;18.71;63.75;101225.06;4967164;28;124061;-61
2022/06/06 03:09:33;;;;;;;39.20;17.45;;;;;;;18.70;63.92;101234.06;4968062;28;115463;-60
2022/06/06 03:12:20;;;;;;;39.13;18.10;;;;;;;18.70;63.75;101223.34;4962897;28;114301;-61
2022/06/06 03:15:18;;;;;;;38.55;17.42;;;;;;;18.70;63.71;101228.69;4966083;28;123905;-61
2022/06/06 03:21:24;;;;;;;38.42;17.90;;;;;;;18.68;63.68;101242.25;4968616;28;114163;-61
2022/06/06 03:24:01;;;;;;;39.95;16.98;;;;;;;18.67;63.78;101250.41;4968318;28;113839;-61
2022/06/06 03:26:53;;;;;;;43.33;19.02;;;;;;;18.66;63.58;101238.81;4956138;28;124584;-61
2022/06/06 03:29:42;;;;;;;42.60;18.67;;;;;;;18.65;63.66;101241.63;4953761;28;124310;-60
2022/06/06 03:32:20;;;;;;;41.83;18.23;;;;;;;18.64;63.74;101238.06;4967517;28;114567;-60
2022/06/06 03:35:21;;;;;;;40.58;18.20;;;;;;;18.63;63.79;101238.19;4984889;28;114277;-61
2022/06/06 03:38:12;;;;;;;36.97;18.38;;;;;;;18.63;63.75;101235.50;4967659;28;124044;-61
2022/06/06 03:40:54;;;;;;;41.47;18.50;;;;;;;18.63;63.59;101238.19;4966280;28;123728;-61
2022/06/06 03:43:51;;;;;;;38.17;18.08;;;;;;;18.62;63.44;101241.84;4968627;28;114082;-61
2022/06/06 03:46:27;;;;;;;41.80;19.15;;;;;;;18.62;63.68;101247.19;4968745;28;115129;-61
2022/06/06 03:49:14;;;;;;;41.22;18.60;;;;;;;18.63;63.57;101254.28;4970379;28;124625;-61
2022/06/06 03:52:16;;;;;;;43.70;18.85;;;;;;;18.61;63.58;101250.84;4971631;28;124561;-61
2022/06/06 03:54:55;;;;;;;39.17;18.30;;;;;;;18.60;63.27;101255.34;4970104;28;116586;-61
2022/06/06 03:57:26;;;;;;;39.33;18.10;;;;;;;18.60;63.23;101254.50;4967417;28;115256;-61
2022/06/06 04:00:00;;;;;;;38.60;17.85;;;;;;;18.58;63.40;101261.81;4968156;28;125987;-61
2022/06/06 04:02:32;;;;;;;37.13;16.50;;;;;;;18.58;63.34;101259.13;4971726;28;123422;-61
2022/06/06 04:05:02;;;;;;;34.95;17.20;;;;;;;18.58;63.39;101261.81;4969096;28;114137;-61
2022/06/06 04:07:30;;;;;;;32.88;16.83;;;;;;;18.57;63.22;101260.97;4970691;28;114273;-61
2022/06/06 04:09:57;;;;;;;38.08;17.40;;;;;;;18.57;63.29;101255.59;4968855;28;124879;-61
2022/06/06 04:13:02;;;;;;;32.20;16.15;;;;;;;18.56;63.27;101259.22;4967878;28;124595;-61
2022/06/06 04:15:54;;;;;;;38.88;17.33;;;;;;;18.55;63.07;101256.66;4968969;28;114584;-61
2022/06/06 04:18:41;;;;;;;39.15;16.20;;;;;;;18.54;62.93;101260.31;4965772;28;114045;-61
2022/06/06 04:21:20;;;;;;;37.28;16.00;;;;;;;18.52;63.05;101267.63;4968344;28;123973;-61
2022/06/06 04:24:12;;;;;;;35.72;16.17;;;;;;;18.51;63.10;101276.63;4970520;28;124326;-61
2022/06/06 04:27:08;;;;;;;34.70;16.52;;;;;;;18.49;63.02;101274.03;4968489;28;114541;-61
2022/06/06 04:29:44;;;;;;;;;;;;;;;18.46;62.88;101279.66;4971252;28;114507;-61
2022/06/06 04:32:42;;;;;;;33.38;14.93;;;;;;;18.44;62.78;101285.13;4969483;28;124277;-61
2022/06/06 04:35:37;;;;;;;28.40;14.57;;;;;;;18.43;62.72;101286.06;4969892;28;123985;-61
2022/06/06 04:38:23;;;;;;;28.55;15.30;;;;;;;18.40;62.44;101285.44;4970336;28;114239;-61
2022/06/06 04:41:00;;;;;;;;;;;;;;;18.37;62.28;101291.88;4969935;28;114113;-61
2022/06/06 04:43:37;;;;;;;28.83;15.38;;;;;;;18.37;62.36;101297.25;4969315;28;124502;-61
2022/06/06 04:46:21;;;;;;;27.40;14.75;;;;;;;18.38;62.54;101288.22;4971619;28;124628;-61
2022/06/06 04:48:51;;;;;;;31.52;15.48;;;;;;;18.39;62.59;101300.66;4984738;28;115343;-61
2022/06/06 04:51:20;;;;;;;27.23;14.85;;;;;;;18.43;62.72;101298.63;4970036;28;114879;-61
2022/06/06 04:53:56;;;;;;;27.27;14.18;;;;;;;18.44;62.31;101297.66;4965328;28;124384;-61
2022/06/06 04:56:25;;;;;;;26.80;14.25;;;;;;;18.44;62.11;101292.28;4970801;28;122788;-61
2022/06/06 04:58:58;;;;;;;28.27;14.45;;;;;;;18.44;62.12;101293.16;4970972;28;114115;-61
2022/06/06 05:01:26;;;;;;;28.52;14.65;;;;;;;18.44;61.86;101308.38;4971439;28;114522;-61
2022/06/06 05:03:53;;;;;;;24.40;12.77;;;;;;;18.43;61.90;101301.31;4970845;28;122792;-61
2022/06/06 05:06:47;;;;;;;21.85;12.63;;;;;;;18.38;61.72;101306.97;4967770;28;123298;-61
2022/06/06 05:09:39;;;;;;;22.75;11.98;;;;;;;18.38;61.92;101304.31;4969064;28;114537;-61
2022/06/06 05:12:30;;;;;;;22.33;11.25;;;;;;;18.35;61.67;101312.59;4967871;28;113916;-61
2022/06/06 05:15:25;;;;;;;23.08;11.90;;;;;;;18.33;61.65;101317.19;4969205;28;124313;-62
2022/06/06 05:18:16;;;;;;;22.90;12.48;;;;;;;18.30;61.46;101309.34;4969326;28;123698;-61
2022/06/06 05:20:58;;;;;;;23.08;12.48;;;;;;;18.24;61.37;101309.81;4966729;28;114161;-61
2022/06/06 05:23:40;;;;;;;22.38;12.57;;;;;;;18.21;61.26;101307.31;4967241;28;114632;-61
2022/06/06 05:26:19;;;;;;;23.02;12.93;;;;;;;18.21;61.33;101312.69;4966710;28;124180;-61
2022/06/06 05:28:46;;;;;;;22.40;12.65;;;;;;;18.23;61.22;101308.06;4970127;28;123969;-61
2022/06/06 05:31:43;;;;;;;23.30;12.95;;;;;;;18.23;60.96;101305.38;4970787;28;113801;-61
2022/06/06 05:34:23;;;;;;;22.98;13.20;;;;;;;18.23;61.04;101317.00;4970311;28;113825;-61
2022/06/06 05:37:03;;;;;;;22.02;13.52;;;;;;;18.23;60.82;101305.38;4966321;28;124059;-61
2022/06/06 05:39:51;;;;;;;25.25;15.05;;;;;;;18.24;60.56;101323.19;4968205;28;123676;-61
2022/06/06 05:42:43;;;;;;;21.48;13.52;;;;;;;18.25;60.79;101324.91;4968126;28;115907;-61
2022/06/06 05:45:29;;;;;;;24.90;14.82;;;;;;;18.28;60.64;101319.34;4970605;28;114079;-61
2022/06/06 05:48:09;;;;;;;21.58;14.20;;;;;;;18.30;60.46;101322.78;4968542;28;124246;-61
2022/06/06 05:50:57;;;;;;;25.23;14.73;;;;;;;18.33;60.47;101319.88;4969009;28;123820;-61
2022/06/06 05:53:37;;;;;;;22.77;14.95;;;;;;;18.39;60.36;101327.50;4966449;28;114921;-62
2022/06/06 05:56:22;;;;;;;23.75;14.68;;;;;;;18.44;60.30;101329.84;4966187;28;114056;-62
2022/06/06 05:59:08;;;;;;;22.80;14.75;;;;;;;18.48;60.13;101321.47;4967830;28;123734;-61
2022/06/06 06:01:53;;;;;;;22.52;13.82;;;;;;;18.49;60.12;101338.41;4969441;28;124668;-61
2022/06/06 06:04:39;;;;;;;22.38;14.52;;;;;;;18.48;59.95;101332.22;4969372;28;114528;-61
2022/06/06 06:07:12;;;;;;;21.65;13.73;;;;;;;18.48;59.76;101332.22;4969917;28;112885;-61
2022/06/06 06:09:58;;;;;;;25.42;14.82;;;;;;;18.51;59.72;101343.69;4966270;28;124344;-61
2022/06/06 06:12:40;;;;;;;22.95;14.25;;;;;;;18.56;59.79;101328.13;4961719;28;124932;-61
2022/06/06 06:15:40;;;;;;;20.05;13.25;;;;;;;18.58;59.58;101342.28;4966751;28;114356;-61
2022/06/06 06:18:15;;;;;;;19.65;12.35;;;;;;;18.62;59.38;101349.16;4965739;28;114443;-60
2022/06/06 06:20:57;;;;;;;19.50;12.57;;;;;;;18.62;59.36;101344.63;4966021;28;124022;-61
2022/06/06 06:23:28;;;;;;;18.27;12.02;;;;;;;18.63;59.29;101351.72;4967152;28;123683;-60
2022/06/06 06:25:59;;;;;;;17.40;11.32;;;;;;;18.64;59.06;101349.91;4965520;28;114103;-61
2022/06/06 06:28:29;;;;;;;16.48;11.00;;;;;;;18.65;59.25;101348.94;4959440;28;114155;-61
2022/06/06 06:31:08;;;;;;;17.55;11.38;;;;;;;18.71;59.08;101356.53;4967653;28;124720;-61
2022/06/06 06:33:56;;;;;;;18.40;11.75;;;;;;;18.76;59.24;101354.41;4963119;28;122960;-61
2022/06/06 06:36:50;;;;;;;14.65;10.38;;;;;;;18.80;59.08;101358.59;4963282;28;115218;-61
2022/06/06 06:39:38;;;;;;;15.65;10.10;;;;;;;18.86;58.79;101358.16;4984192;28;114878;-61
2022/06/06 06:42:08;;;;;;;14.15;9.40;;;;;;;18.95;58.64;101363.81;4966702;28;124050;-61
2022/06/06 06:45:01;;;;;;;14.30;9.95;;;;;;;19.05;58.57;101362.22;4966261;28;124373;-61
2022/06/06 06:47:32;;;;;;;13.40;9.70;;;;;;;19.14;58.34;101364.22;4967075;28;114783;-61
2022/06/06 06:50:10;;;;;;;13.63;9.50;;;;;;;19.22;58.35;101364.50;4969254;28;114108;-61
2022/06/06 06:52:59;;;;;;;11.75;8.80;;;;;;;19.35;58.19;101360.94;4964991;28;123879;-61
2022/06/06 06:55:36;;;;;;;11.02;8.18;;;;;;;19.47;58.10;101360.00;4965871;28;123830;-61
2022/06/06 06:58:31;;;;;;;12.35;8.35;;;;;;;19.60;57.92;101371.56;4964330;28;114311;-61
2022/06/06 07:01:02;;;;;;;12.27;9.07;;;;;;;19.72;57.78;101376.97;4949318;28;113967;-61
2022/06/06 07:09:44;;;;;;;10.82;7.88;;;;;;;20.00;56.87;101371.28;4972810;28;113128;-61
2022/06/06 07:12:33;;;;;;;14.50;6.93;;;;;;;20.11;56.87;101366.91;4967136;28;114392;-61
2022/06/06 07:15:25;;;;;;;10.50;6.78;;;;;;;20.24;56.70;101362.28;4970940;28;123912;-62
2022/06/06 07:17:59;;;;;;;11.20;6.30;;;;;;;20.36;56.43;101369.41;4970813;28;123815;-62
2022/06/06 07:20:27;;;;;;;8.52;5.50;;;;;;;20.47;56.13;101370.38;4971083;28;114421;-62
2022/06/06 07:22:59;;;;;;;9.77;4.97;;;;;;;20.49;55.32;101371.13;4972760;28;114330;-62
2022/06/06 07:25:28;;;;;;;9.55;4.82;;;;;;;20.47;55.17;101362.31;4969931;28;124177;-62
2022/06/06 07:27:55;;;;;;;6.80;3.63;;;;;;;20.41;54.90;101361.81;4968438;28;124349;-61
2022/06/06 07:30:23;;;;;;;4.85;3.58;;;;;;;20.38;54.51;101354.00;4972219;28;116505;-62
2022/06/06 07:33:20;;;;;;;5.40;3.20;;;;;;;20.35;54.64;101359.59;4969385;28;115169;-62
2022/06/06 07:36:10;;;;;;;5.18;3.17;;;;;;;20.38;54.83;101359.38;4968555;28;124086;-62
2022/06/06 07:38:48;;;;;;;5.25;3.30;;;;;;;20.46;54.72;101366.00;4984000;28;123968;-62
2022/06/06 07:41:55;;;;;;;5.70;2.90;;;;;;;20.51;54.62;101369.16;4968651;28;114554;-62
2022/06/06 07:44:50;;;;;;;4.47;2.25;;;;;;;20.60;54.66;101368.47;4971955;28;116226;-62
2022/06/06 07:47:33;;;;;;;4.70;2.42;;;;;;;20.70;54.73;101374.84;4974443;28;124004;-61
2022/06/06 07:50:32;;;;;;;4.90;2.13;;;;;;;20.76;54.25;101374.34;4971471;28;123995;-62
2022/06/06 07:53:11;;;;;;;4.68;2.08;;;;;;;20.85;53.94;101374.59;4970297;28;114632;-62
2022/06/06 07:56:06;;;;;;;3.50;2.03;;;;;;;20.92;53.67;101378.50;4972057;28;114709;-62
2022/06/06 07:59:09;;;;;;;5.90;2.05;;;;;;;20.90;53.31;101385.84;4971641;28;123470;-62
2022/06/06 08:02:00;;;;;;;4.65;2.00;;;;;;;20.82;53.32;101372.16;4970657;28;124178;-62
2022/06/06 08:04:45;;;;;;;3.03;1.90;;;;;;;20.79;52.90;101375.94;4963567;28;114202;-62
2022/06/06 08:07:30;;;;;;;3.08;1.92;;;;;;;20.74;52.83;101375.47;4973897;28;114100;-62
2022/06/06 08:10:12;;;;;;;3.22;1.88;;;;;;;20.73;53.09;101379.97;4964792;28;124887;-61
2022/06/06 08:12:59;;;;;;;3.80;1.50;;;;;;;20.70;52.61;101380.25;4964731;28;123938;-61
2022/06/06 08:15:55;;;;;;;3.58;1.42;;;;;;;20.67;52.66;101385.84;4969494;28;114934;-62
2022/06/06 08:18:37;;;;;;;3.92;1.38;;;;;;;20.70;52.44;101380.25;4965612;28;114506;-62
2022/06/06 08:21:16;;;;;;;3.35;1.25;;;;;;;20.74;52.29;101380.84;4982916;28;122900;-61
2022/06/06 08:23:45;;;;;;;1.90;1.17;;;;;;;20.77;51.92;101365.28;4966032;28;123827;-61
2022/06/06 08:26:15;;;;;;;1.75;1.10;;;;;;;20.87;52.41;101370.81;4964875;28;115039;-61
2022/06/06 08:28:45;;;;;;;3.28;1.50;;;;;;;20.98;52.18;101373.50;4950814;28;115317;-61
2022/06/06 08:31:12;;;;;;;3.28;1.33;;;;;;;21.05;51.84;101376.53;4969004;28;124753;-62
2022/06/06 08:33:39;;;;;;;2.00;1.40;;;;;;;21.03;51.13;101370.41;4973203;28;124661;-61
2022/06/06 08:36:18;;;;;;;2.30;1.23;;;;;;;20.98;50.91;101383.41;4969607;28;114208;-61
2022/06/06 08:39:15;;;;;;;2.65;1.40;;;;;;;20.93;51.17;101374.84;4952432;28;112855;-61
2022/06/06 08:42:07;;;;;;;2.90;1.38;;;;;;;20.89;51.29;101367.97;4950482;28;124193;-61
2022/06/06 08:44:59;;;;;;;6.00;1.38;;;;;;;20.91;51.61;101366.03;4951287;28;124665;-62
2022/06/06 08:48:12;;;;;;;2.25;1.60;;;;;;;20.96;51.61;101374.59;4970353;28;114361;-62
2022/06/06 08:51:12;;;;;;;3.03;1.60;;;;;;;21.01;51.58;101367.00;4961796;28;114013;-61
2022/06/06 08:54:28;;;;;;;2.10;1.30;;;;;;;21.04;51.63;101361.38;4952054;28;122896;-62
2022/06/06 08:57:30;;;;;;;3.08;1.27;;;;;;;21.05;51.36;101363.06;4983364;28;123844;-62
2022/06/06 09:00:18;;;;;;;2.50;1.30;;;;;;;21.04;51.17;101361.38;4954907;28;113127;-62
2022/06/06 09:03:23;;;;;;;1.77;1.33;;;;;;;21.05;51.26;101367.63;4970056;28;114339;-62
2022/06/06 09:06:09;;;;;;;2.53;1.38;;;;;;;21.03;51.02;101365.03;4959044;28;123564;-62
2022/06/06 09:09:21;;;;;;;2.35;1.48;;;;;;;20.97;51.18;101365.53;4970531;28;123813;-62
2022/06/06 09:12:26;;;;;;;2.95;1.33;;;;;;;20.95;51.10;101356.72;4969623;28;114378;-62
2022/06/06 09:15:08;;;;;;;2.08;1.20;;;;;;;20.94;51.03;101350.47;4960806;28;113854;-62
2022/06/06 09:17:58;;;;;;;4.10;1.40;;;;;;;20.98;51.16;101356.47;4949570;28;124099;-62
2022/06/06 09:20:31;;;;;;;2.78;1.13;;;;;;;21.04;51.04;101361.38;4963659;28;124069;-62
2022/06/06 09:23:15;;;;;;;1.65;0.90;;;;;;;21.13;50.73;101359.75;4962603;28;115735;-62
2022/06/06 09:26:02;;;;;;;1.13;0.80;;;;;;;21.23;50.83;101349.06;4970981;28;115500;-62
2022/06/06 09:28:45;;;;;;;2.55;1.25;;;;;;;21.30;50.46;101344.91;4970156;28;122996;-62
2022/06/06 09:31:46;;;;;;;3.45;1.10;;;;;;;21.34;50.40;101357.13;4960078;28;123037;-62
2022/06/06 09:34:47;;;;;;;1.83;1.15;;;;;;;21.41;50.55;101352.94;4969423;28;114575;-62
2022/06/06 09:37:49;;;;;;;1.85;0.90;;;;;;;21.52;50.71;101366.41;4968557;28;113813;-62
2022/06/06 09:40:34;;;;;;;1.40;0.93;;;;;;;21.67;50.65;101347.25;4954324;28;123052;-62
2022/06/06 09:43:08;;;;;;;2.53;1.30;;;;;;;21.82;50.58;101345.97;4970137;28;124834;-62
2022/06/06 09:45:57;;;;;;;1.75;1.30;;;;;;;21.96;50.12;101348.34;4958654;28;114274;-62
2022/06/06 09:48:49;;;;;;;2.40;1.13;;;;;;;22.12;49.87;101336.25;4966171;28;113798;-62
2022/06/06 09:51:42;;;;;;;1.67;0.90;;;;;;;22.29;49.76;101338.34;4962976;28;123151;-62
2022/06/06 10:00:39;;;;;;;1.90;1.02;;;;;;;22.24;48.85;101335.16;4968856;28;113133;-61
2022/06/06 10:03:29;;;;;;;2.90;1.42;;;;;;;22.11;48.92;101337.22;4967050;28;123934;-62
2022/06/06 10:06:18;;;;;;;1.92;1.23;;;;;;;21.99;49.37;101331.03;4974991;28;124470;-62
2022/06/06 10:09:00;;;;;;;2.45;1.40;;;;;;;21.90;49.20;101332.66;4971195;28;113820;-62
2022/06/06 10:11:46;;;;;;;2.83;1.00;;;;;;;21.92;49.81;101332.53;4966389;28;113891;-62
2022/06/06 10:14:31;;;;;;;2.95;1.10;;;;;;;21.95;50.05;101335.84;4964277;28;124268;-62
2022/06/06 10:17:20;;;;;;;2.15;0.93;;;;;;;22.01;49.74;101317.44;4967544;28;123720;-62
2022/06/06 10:19:53;;;;;;;1.85;1.20;;;;;;;22.11;50.21;101307.53;4968514;28;115153;-62
2022/06/06 10:22:30;;;;;;;3.08;1.00;;;;;;;22.27;49.94;101324.16;4970623;28;113903;-62
2022/06/06 10:25:11;;;;;;;1.98;0.85;;;;;;;22.44;49.95;101325.38;4964799;28;124865;-62
2022/06/06 10:28:13;;;;;;;1.20;0.95;;;;;;;22.67;49.54;101309.84;4966133;28;124640;-62
2022/06/06 10:31:13;;;;;;;3.42;1.00;;;;;;;22.90;49.49;101304.22;4961841;28;114362;-62
2022/06/06 10:33:56;;;;;;;2.67;1.33;;;;;;;23.10;48.98;101306.00;4957049;28;114264;-62
2022/06/06 10:36:47;;;;;;;1.80;1.10;;;;;;;23.32;48.98;101314.88;4968454;28;124826;-62
2022/06/06 10:39:38;;;;;;;1.20;0.90;;;;;;;23.45;48.75;101292.94;4969688;28;124169;-62
2022/06/06 10:42:22;;;;;;;1.98;0.90;;;;;;;23.50;47.77;101296.91;4966370;28;114247;-62
2022/06/06 10:45:25;;;;;;;1.98;1.15;;;;;;;23.51;47.98;101293.25;4967663;28;114478;-62
2022/06/06 10:47:52;;;;;;;1.60;0.90;;;;;;;23.58;47.55;101298.06;4966992;28;123863;-62
2022/06/06 10:51:36;;;;;;;2.78;1.05;;;;;;;23.62;47.13;101294.06;4970005;28;124518;-62
2022/06/06 10:53:39;;;;;;;2.83;0.90;;;;;;;23.67;47.34;101302.63;4966900;28;113041;-62
2022/06/06 10:56:13;;;;;;;2.38;0.95;;;;;;;23.70;46.51;101302.34;4965293;28;114063;-62
2022/06/06 10:58:55;;;;;;;1.27;0.82;;;;;;;23.67;46.29;101292.66;4965537;28;124725;-62
2022/06/06 11:01:59;;;;;;;1.10;0.90;;;;;;;23.65;46.30;101293.78;4965144;28;123977;-62
2022/06/06 11:04:33;;;;;;;1.70;1.08;;;;;;;23.68;46.10;101299.78;4967767;28;114479;-62
2022/06/06 11:07:26;;;;;;;2.45;0.90;;;;;;;23.75;46.38;101282.97;4966751;28;113711;-61
2022/06/06 11:10:21;;;;;;;1.30;0.90;;;;;;;23.75;46.09;101291.91;4980564;28;123830;-62
2022/06/06 11:13:23;;;;;;;4.93;1.10;;;;;;;23.69;45.49;101284.41;4967959;28;124648;-62
2022/06/06 11:16:06;;;;;;;1.75;0.90;;;;;;;23.62;45.46;101283.25;4965338;28;115196;-62
2022/06/06 11:18:45;;;;;;;1.55;0.80;;;;;;;23.63;45.17;101284.97;4964595;28;114833;-62
2022/06/06 11:21:39;;;;;;;3.70;0.90;;;;;;;23.66;45.78;101284.69;4954320;28;122957;-62
2022/06/06 11:24:35;;;;;;;1.40;0.60;;;;;;;23.73;45.69;101275.00;4967115;28;124577;-62
2022/06/06 11:27:05;;;;;;;1.92;0.90;;;;;;;23.84;45.72;101272.16;4964808;28;114185;-62
2022/06/06 11:29:51;;;;;;;1.30;0.77;;;;;;;23.95;45.14;101273.00;4967628;28;114331;-62
2022/06/06 11:32:31;;;;;;;1.00;0.60;;;;;;;24.05;45.17;101272.00;4964684;28;125135;-62
2022/06/06 11:35:01;;;;;;;2.00;0.80;;;;;;;24.17;45.36;101267.25;4965650;28;123820;-62
2022/06/06 11:37:39;;;;;;;5.50;0.95;;;;;;;24.23;44.35;101272.06;4982251;28;113459;-62
2022/06/06 11:40:45;;;;;;;1.45;0.80;;;;;;;24.18;44.21;101263.53;4968608;28;114029;-62
2022/06/06 11:43:29;;;;;;;1.23;0.80;;;;;;;24.05;44.16;101253.03;4981240;28;124122;-61
2022/06/06 11:46:22;;;;;;;1.23;0.80;;;;;;;23.93;43.71;101253.38;4959771;28;123884;-61
2022/06/06 11:49:14;;;;;;;1.73;0.80;;;;;;;23.74;43.67;101249.66;4961303;28;114186;-61
2022/06/06 11:52:06;;;;;;;1.33;0.93;;;;;;;23.59;44.12;101259.22;4959531;28;114166;-61
2022/06/06 11:55:00;;;;;;;3.05;1.00;;;;;;;23.50;44.33;101263.63;4965288;28;124157;-62
2022/06/06 11:57:46;;;;;;;1.50;0.88;;;;;;;23.54;44.75;101258.78;4970515;28;124604;-61
2022/06/06 12:00:22;;;;;;;1.75;0.80;;;;;;;23.64;44.93;101265.03;4972635;28;115081;-61
2022/06/06 12:03:13;;;;;;;2.58;1.00;;;;;;;23.72;44.47;101262.47;4966992;28;113767;-62
2022/06/06 12:05:40;;;;;;;3.58;1.15;;;;;;;23.71;44.30;101255.34;4964007;28;123921;-61
2022/06/06 12:08:28;;;;;;;2.17;1.05;;;;;;;23.70;44.16;101253.66;4966288;28;124243;-62
2022/06/06 12:11:21;;;;;;;2.55;0.95;;;;;;;23.71;44.53;101247.22;4964498;28;115042;-62
2022/06/06 12:14:14;;;;;;;1.30;1.00;;;;;;;23.79;44.43;101258.22;4955156;28;116273;-61
2022/06/06 12:17:17;;;;;;;1.70;0.90;;;;;;;23.82;43.86;101257.91;4955725;28;124845;-61
2022/06/06 12:20:14;;;;;;;2.55;0.80;;;;;;;23.75;43.53;101256.75;4976582;28;123052;-62
2022/06/06 12:22:53;;;;;;;2.40;0.82;;;;;;;23.66;43.55;101257.66;4968867;28;114617;-61
2022/06/06 12:25:26;;;;;;;1.20;0.70;;;;;;;23.52;43.15;101267.88;4964464;28;113903;-61
2022/06/06 12:28:18;;;;;;;2.03;1.00;;;;;;;23.41;43.26;101265.34;4969008;28;123071;-62
2022/06/06 12:31:08;;;;;;;2.30;0.80;;;;;;;23.35;43.18;101260.50;4970719;28;124286;-62
2022/06/06 12:33:42;;;;;;;2.08;0.80;;;;;;;23.27;43.24;101263.06;4958935;28;115792;-62
2022/06/06 12:36:22;;;;;;;1.75;0.90;;;;;;;23.22;43.52;101266.19;4969002;28;114007;-62